Terminal Aerodrome Forecast
Issued by NWS

Home | Current Version | Previous Version | Text Only | Print | Product List | Glossary On
Versions: 1 2 3 4 5 6 7 8 9 10 11 12 13 14 15 16 17 18 19 20
000
FTUS41 KBOX 240109 AAA
TAFACK
TAF AMD
KACK 240109Z 2401/2424 25011G21KT P6SM SCT150
     FM240200 36012G25KT 3SM -TSRA BKN070CB
     FM240300 31010KT P6SM FEW070
     FM241200 34009KT P6SM SKC
     FM241700 29008KT P6SM FEW250
     FM242000 21008KT P6SM FEW250=

USA.gov is the U.S. government's official web portal to all federal, state and local government web resources and services.